sensor_id;sensor_type;location;lat;lon;timestamp;temperature;humidity
29237;DHT22;16266;50.866;4.398;2023-03-13T00:03:48;11.30;99.90
29237;DHT22;16266;50.866;4.398;2023-03-13T00:06:15;11.30;99.90
29237;DHT22;16266;50.866;4.398;2023-03-13T00:08:41;11.40;99.90
29237;DHT22;16266;50.866;4.398;2023-03-13T00:11:09;11.30;99.90
29237;DHT22;16266;50.866;4.398;2023-03-13T00:13:35;11.40;99.90
29237;DHT22;16266;50.866;4.398;2023-03-13T00:16:03;11.40;99.90
29237;DHT22;16266;50.866;4.398;2023-03-13T00:18:30;11.40;99.90
29237;DHT22;16266;50.866;4.398;2023-03-13T00:21:22;11.40;99.90
29237;DHT22;16266;50.866;4.398;2023-03-13T00:23:49;11.50;99.90
29237;DHT22;16266;50.866;4.398;2023-03-13T00:26:17;11.40;99.90
29237;DHT22;16266;50.866;4.398;2023-03-13T00:28:43;11.40;99.90
29237;DHT22;16266;50.866;4.398;2023-03-13T00:31:11;11.40;99.90
29237;DHT22;16266;50.866;4.398;2023-03-13T00:33:41;11.40;99.90
29237;DHT22;16266;50.866;4.398;2023-03-13T00:36:31;11.40;99.90
29237;DHT22;16266;50.866;4.398;2023-03-13T00:38:58;11.40;99.90
29237;DHT22;16266;50.866;4.398;2023-03-13T00:41:28;11.40;99.90
29237;DHT22;16266;50.866;4.398;2023-03-13T00:43:54;11.40;99.90
29237;DHT22;16266;50.866;4.398;2023-03-13T00:46:23;11.40;99.90
29237;DHT22;16266;50.866;4.398;2023-03-13T00:48:49;11.40;99.90
29237;DHT22;16266;50.866;4.398;2023-03-13T00:51:16;11.50;99.90
29237;DHT22;16266;50.866;4.398;2023-03-13T00:53:42;11.50;99.90
29237;DHT22;16266;50.866;4.398;2023-03-13T00:56:11;11.50;99.90
29237;DHT22;16266;50.866;4.398;2023-03-13T00:58:39;11.60;99.90
29237;DHT22;16266;50.866;4.398;2023-03-13T01:03:32;11.60;99.90
29237;DHT22;16266;50.866;4.398;2023-03-13T01:06:00;11.60;99.90
29237;DHT22;16266;50.866;4.398;2023-03-13T01:08:27;11.60;99.90
29237;DHT22;16266;50.866;4.398;2023-03-13T01:11:10;11.60;99.90
29237;DHT22;16266;50.866;4.398;2023-03-13T01:13:36;11.70;99.90
29237;DHT22;16266;50.866;4.398;2023-03-13T01:16:04;11.70;99.90
29237;DHT22;16266;50.866;4.398;2023-03-13T01:18:30;11.70;99.90
29237;DHT22;16266;50.866;4.398;2023-03-13T01:20:56;11.70;99.90
29237;DHT22;16266;50.866;4.398;2023-03-13T01:23:21;11.80;99.90
29237;DHT22;16266;50.866;4.398;2023-03-13T01:25:47;11.80;99.90
29237;DHT22;16266;50.866;4.398;2023-03-13T01:28:13;11.80;99.90
29237;DHT22;16266;50.866;4.398;2023-03-13T01:30:39;11.80;99.90
29237;DHT22;16266;50.866;4.398;2023-03-13T01:33:04;11.90;99.90
29237;DHT22;16266;50.866;4.398;2023-03-13T01:35:31;11.90;99.90
29237;DHT22;16266;50.866;4.398;2023-03-13T01:37:57;11.90;99.90
29237;DHT22;16266;50.866;4.398;2023-03-13T01:40:23;11.90;99.90
29237;DHT22;16266;50.866;4.398;2023-03-13T01:42:54;11.90;99.90
29237;DHT22;16266;50.866;4.398;2023-03-13T01:45:58;12.00;99.90
29237;DHT22;16266;50.866;4.398;2023-03-13T01:51:01;12.10;99.90
29237;DHT22;16266;50.866;4.398;2023-03-13T01:53:30;12.10;99.90
29237;DHT22;16266;50.866;4.398;2023-03-13T01:55:56;12.10;99.90
29237;DHT22;16266;50.866;4.398;2023-03-13T01:58:24;12.10;99.90
29237;DHT22;16266;50.866;4.398;2023-03-13T02:00:51;12.10;99.90
29237;DHT22;16266;50.866;4.398;2023-03-13T02:03:19;12.10;99.90
29237;DHT22;16266;50.866;4.398;2023-03-13T02:05:46;12.20;99.90
29237;DHT22;16266;50.866;4.398;2023-03-13T02:08:22;12.20;99.90
29237;DHT22;16266;50.866;4.398;2023-03-13T02:11:09;12.20;99.90
29237;DHT22;16266;50.866;4.398;2023-03-13T02:13:38;12.20;99.90
29237;DHT22;16266;50.866;4.398;2023-03-13T02:16:04;12.30;99.90
29237;DHT22;16266;50.866;4.398;2023-03-13T02:18:30;12.30;99.90
29237;DHT22;16266;50.866;4.398;2023-03-13T02:21:03;12.30;99.90
29237;DHT22;16266;50.866;4.398;2023-03-13T02:23:35;12.40;99.90
29237;DHT22;16266;50.866;4.398;2023-03-13T02:26:04;12.40;99.90
29237;DHT22;16266;50.866;4.398;2023-03-13T02:28:32;12.50;99.90
29237;DHT22;16266;50.866;4.398;2023-03-13T02:31:00;12.50;99.90
29237;DHT22;16266;50.866;4.398;2023-03-13T02:33:29;12.60;99.90
29237;DHT22;16266;50.866;4.398;2023-03-13T02:35:56;12.60;99.90
29237;DHT22;16266;50.866;4.398;2023-03-13T02:38:25;12.60;99.90
29237;DHT22;16266;50.866;4.398;2023-03-13T02:40:52;12.60;99.90
29237;DHT22;16266;50.866;4.398;2023-03-13T02:43:35;12.70;99.90
29237;DHT22;16266;50.866;4.398;2023-03-13T02:48:41;12.70;99.90
29237;DHT22;16266;50.866;4.398;2023-03-13T02:51:30;12.70;99.90
29237;DHT22;16266;50.866;4.398;2023-03-13T02:54:04;12.80;99.90
29237;DHT22;16266;50.866;4.398;2023-03-13T02:56:32;12.80;99.90
29237;DHT22;16266;50.866;4.398;2023-03-13T02:58:58;12.80;99.90
29237;DHT22;16266;50.866;4.398;2023-03-13T03:01:25;12.80;99.90
29237;DHT22;16266;50.866;4.398;2023-03-13T03:03:50;12.80;99.90
29237;DHT22;16266;50.866;4.398;2023-03-13T03:06:16;12.80;99.90
29237;DHT22;16266;50.866;4.398;2023-03-13T03:08:42;12.80;99.90
29237;DHT22;16266;50.866;4.398;2023-03-13T03:11:08;12.90;99.90
29237;DHT22;16266;50.866;4.398;2023-03-13T03:13:35;12.90;99.90
29237;DHT22;16266;50.866;4.398;2023-03-13T03:16:11;12.90;99.90
29237;DHT22;16266;50.866;4.398;2023-03-13T03:18:39;12.90;99.90
29237;DHT22;16266;50.866;4.398;2023-03-13T03:21:05;12.80;99.90
29237;DHT22;16266;50.866;4.398;2023-03-13T03:23:32;12.90;99.90
29237;DHT22;16266;50.866;4.398;2023-03-13T03:25:58;13.00;99.90
29237;DHT22;16266;50.866;4.398;2023-03-13T03:28:24;13.00;99.90
29237;DHT22;16266;50.866;4.398;2023-03-13T03:30:50;13.00;99.90
29237;DHT22;16266;50.866;4.398;2023-03-13T03:33:19;13.00;99.90
29237;DHT22;16266;50.866;4.398;2023-03-13T03:35:45;13.00;99.90
29237;DHT22;16266;50.866;4.398;2023-03-13T03:38:10;13.10;99.90
29237;DHT22;16266;50.866;4.398;2023-03-13T03:40:36;13.10;99.90
29237;DHT22;16266;50.866;4.398;2023-03-13T03:43:01;13.10;99.90
29237;DHT22;16266;50.866;4.398;2023-03-13T03:45:27;13.10;99.90
29237;DHT22;16266;50.866;4.398;2023-03-13T03:47:53;13.10;99.90
29237;DHT22;16266;50.866;4.398;2023-03-13T03:50:18;13.10;99.90
29237;DHT22;16266;50.866;4.398;2023-03-13T03:52:44;13.20;99.90
29237;DHT22;16266;50.866;4.398;2023-03-13T03:55:10;13.20;99.90
29237;DHT22;16266;50.866;4.398;2023-03-13T03:57:35;13.20;99.90
29237;DHT22;16266;50.866;4.398;2023-03-13T04:00:01;13.20;99.90
29237;DHT22;16266;50.866;4.398;2023-03-13T04:02:27;13.20;99.90
29237;DHT22;16266;50.866;4.398;2023-03-13T04:04:52;13.30;99.90
29237;DHT22;16266;50.866;4.398;2023-03-13T04:07:18;13.40;99.90
29237;DHT22;16266;50.866;4.398;2023-03-13T04:09:43;13.30;99.90
29237;DHT22;16266;50.866;4.398;2023-03-13T04:12:09;13.30;99.90
29237;DHT22;16266;50.866;4.398;2023-03-13T04:14:35;13.30;99.90
29237;DHT22;16266;50.866;4.398;2023-03-13T04:17:00;13.40;99.90
29237;DHT22;16266;50.866;4.398;2023-03-13T04:19:26;13.40;99.90
29237;DHT22;16266;50.866;4.398;2023-03-13T04:21:51;13.40;99.90
29237;DHT22;16266;50.866;4.398;2023-03-13T04:24:17;13.40;99.90
29237;DHT22;16266;50.866;4.398;2023-03-13T04:26:43;13.40;99.90
29237;DHT22;16266;50.866;4.398;2023-03-13T04:29:08;13.40;99.90
29237;DHT22;16266;50.866;4.398;2023-03-13T04:31:34;13.40;99.90
29237;DHT22;16266;50.866;4.398;2023-03-13T04:34:00;13.40;99.90
29237;DHT22;16266;50.866;4.398;2023-03-13T04:36:25;13.40;99.90
29237;DHT22;16266;50.866;4.398;2023-03-13T04:38:51;13.50;99.90
29237;DHT22;16266;50.866;4.398;2023-03-13T04:41:16;13.50;99.90
29237;DHT22;16266;50.866;4.398;2023-03-13T04:43:42;13.50;99.90
29237;DHT22;16266;50.866;4.398;2023-03-13T04:46:08;13.60;99.90
29237;DHT22;16266;50.866;4.398;2023-03-13T04:48:33;13.60;99.90
29237;DHT22;16266;50.866;4.398;2023-03-13T04:50:59;13.60;99.90
29237;DHT22;16266;50.866;4.398;2023-03-13T04:53:24;13.50;99.90
29237;DHT22;16266;50.866;4.398;2023-03-13T04:55:50;13.50;99.90
29237;DHT22;16266;50.866;4.398;2023-03-13T04:58:16;13.50;99.90
29237;DHT22;16266;50.866;4.398;2023-03-13T05:00:42;13.60;99.90
29237;DHT22;16266;50.866;4.398;2023-03-13T05:03:07;13.50;99.90
29237;DHT22;16266;50.866;4.398;2023-03-13T05:05:34;13.50;99.90
29237;DHT22;16266;50.866;4.398;2023-03-13T05:08:00;13.60;99.90
29237;DHT22;16266;50.866;4.398;2023-03-13T05:10:26;13.60;99.90
29237;DHT22;16266;50.866;4.398;2023-03-13T05:12:51;13.50;99.90
29237;DHT22;16266;50.866;4.398;2023-03-13T05:15:17;13.60;99.90
29237;DHT22;16266;50.866;4.398;2023-03-13T05:17:43;13.60;99.90
29237;DHT22;16266;50.866;4.398;2023-03-13T05:20:09;13.60;99.90
29237;DHT22;16266;50.866;4.398;2023-03-13T05:22:36;13.60;99.90
29237;DHT22;16266;50.866;4.398;2023-03-13T05:25:02;13.60;99.90
29237;DHT22;16266;50.866;4.398;2023-03-13T05:27:29;13.60;99.90
29237;DHT22;16266;50.866;4.398;2023-03-13T05:29:55;13.60;99.90
29237;DHT22;16266;50.866;4.398;2023-03-13T05:32:20;13.60;99.90
29237;DHT22;16266;50.866;4.398;2023-03-13T05:34:46;13.60;99.90
29237;DHT22;16266;50.866;4.398;2023-03-13T05:37:11;13.60;99.90
29237;DHT22;16266;50.866;4.398;2023-03-13T05:39:37;13.60;99.90
29237;DHT22;16266;50.866;4.398;2023-03-13T05:42:03;13.60;99.90
29237;DHT22;16266;50.866;4.398;2023-03-13T05:44:28;13.60;99.90
29237;DHT22;16266;50.866;4.398;2023-03-13T05:46:54;13.60;99.90
29237;DHT22;16266;50.866;4.398;2023-03-13T05:49:19;13.60;99.90
29237;DHT22;16266;50.866;4.398;2023-03-13T05:51:45;13.50;99.90
29237;DHT22;16266;50.866;4.398;2023-03-13T05:54:11;13.50;99.90
29237;DHT22;16266;50.866;4.398;2023-03-13T05:56:36;13.50;99.90
29237;DHT22;16266;50.866;4.398;2023-03-13T05:59:02;13.60;99.90
29237;DHT22;16266;50.866;4.398;2023-03-13T06:01:28;13.60;99.90
29237;DHT22;16266;50.866;4.398;2023-03-13T06:03:53;13.70;99.90
29237;DHT22;16266;50.866;4.398;2023-03-13T06:06:19;13.70;99.90
29237;DHT22;16266;50.866;4.398;2023-03-13T06:08:45;13.70;99.90
29237;DHT22;16266;50.866;4.398;2023-03-13T06:11:10;13.70;99.90
29237;DHT22;16266;50.866;4.398;2023-03-13T06:13:36;13.70;99.90
29237;DHT22;16266;50.866;4.398;2023-03-13T06:16:02;13.80;99.90
29237;DHT22;16266;50.866;4.398;2023-03-13T06:18:28;13.80;99.90
29237;DHT22;16266;50.866;4.398;2023-03-13T06:20:58;13.80;99.90
29237;DHT22;16266;50.866;4.398;2023-03-13T06:23:24;13.80;99.90
29237;DHT22;16266;50.866;4.398;2023-03-13T06:25:49;13.80;99.90
29237;DHT22;16266;50.866;4.398;2023-03-13T06:28:15;13.80;99.90
29237;DHT22;16266;50.866;4.398;2023-03-13T06:30:41;13.90;99.90
29237;DHT22;16266;50.866;4.398;2023-03-13T06:33:07;13.90;99.90
29237;DHT22;16266;50.866;4.398;2023-03-13T06:35:33;13.90;99.90
29237;DHT22;16266;50.866;4.398;2023-03-13T06:37:58;13.90;99.90
29237;DHT22;16266;50.866;4.398;2023-03-13T06:40:24;13.90;99.90
29237;DHT22;16266;50.866;4.398;2023-03-13T06:42:50;14.00;99.90
29237;DHT22;16266;50.866;4.398;2023-03-13T06:45:16;14.00;99.90
29237;DHT22;16266;50.866;4.398;2023-03-13T06:47:41;14.00;99.90
29237;DHT22;16266;50.866;4.398;2023-03-13T06:50:07;14.00;99.90
29237;DHT22;16266;50.866;4.398;2023-03-13T06:52:33;14.10;99.90
29237;DHT22;16266;50.866;4.398;2023-03-13T06:54:59;14.00;99.90
29237;DHT22;16266;50.866;4.398;2023-03-13T06:57:25;14.10;99.90
29237;DHT22;16266;50.866;4.398;2023-03-13T06:59:51;14.10;99.90
29237;DHT22;16266;50.866;4.398;2023-03-13T07:02:17;14.20;99.90
29237;DHT22;16266;50.866;4.398;2023-03-13T07:04:42;14.20;99.90
29237;DHT22;16266;50.866;4.398;2023-03-13T07:07:08;14.20;99.90
29237;DHT22;16266;50.866;4.398;2023-03-13T07:09:34;14.20;99.90
29237;DHT22;16266;50.866;4.398;2023-03-13T07:11:59;14.30;99.90
29237;DHT22;16266;50.866;4.398;2023-03-13T07:14:27;14.40;99.90
29237;DHT22;16266;50.866;4.398;2023-03-13T07:16:53;14.40;99.90
29237;DHT22;16266;50.866;4.398;2023-03-13T07:19:19;14.40;99.90
29237;DHT22;16266;50.866;4.398;2023-03-13T07:21:44;14.40;99.90
29237;DHT22;16266;50.866;4.398;2023-03-13T07:24:11;14.50;99.90
29237;DHT22;16266;50.866;4.398;2023-03-13T07:26:37;14.40;99.90
29237;DHT22;16266;50.866;4.398;2023-03-13T07:29:03;14.40;99.90
29237;DHT22;16266;50.866;4.398;2023-03-13T07:31:29;14.50;99.90
29237;DHT22;16266;50.866;4.398;2023-03-13T07:33:58;14.50;99.90
29237;DHT22;16266;50.866;4.398;2023-03-13T07:36:24;14.40;99.90
29237;DHT22;16266;50.866;4.398;2023-03-13T07:38:50;14.20;99.90
29237;DHT22;16266;50.866;4.398;2023-03-13T07:41:16;14.30;99.90
29237;DHT22;16266;50.866;4.398;2023-03-13T07:43:43;14.20;99.90
29237;DHT22;16266;50.866;4.398;2023-03-13T07:46:11;14.30;99.90
29237;DHT22;16266;50.866;4.398;2023-03-13T07:48:38;14.80;99.90
29237;DHT22;16266;50.866;4.398;2023-03-13T07:51:07;15.00;99.90
29237;DHT22;16266;50.866;4.398;2023-03-13T07:53:35;14.90;99.90
29237;DHT22;16266;50.866;4.398;2023-03-13T07:56:12;14.80;99.90
29237;DHT22;16266;50.866;4.398;2023-03-13T07:58:44;14.60;99.90
29237;DHT22;16266;50.866;4.398;2023-03-13T08:01:12;14.50;99.90
29237;DHT22;16266;50.866;4.398;2023-03-13T08:03:39;14.70;99.90
29237;DHT22;16266;50.866;4.398;2023-03-13T08:06:12;14.70;99.90
29237;DHT22;16266;50.866;4.398;2023-03-13T08:08:39;14.60;99.90
29237;DHT22;16266;50.866;4.398;2023-03-13T08:11:07;14.40;99.90
29237;DHT22;16266;50.866;4.398;2023-03-13T08:13:34;14.30;99.90
29237;DHT22;16266;50.866;4.398;2023-03-13T08:16:12;14.30;99.90
29237;DHT22;16266;50.866;4.398;2023-03-13T08:18:43;14.40;99.90
29237;DHT22;16266;50.866;4.398;2023-03-13T08:21:16;14.60;99.90
29237;DHT22;16266;50.866;4.398;2023-03-13T08:23:44;14.70;99.90
29237;DHT22;16266;50.866;4.398;2023-03-13T08:26:19;14.80;99.90
29237;DHT22;16266;50.866;4.398;2023-03-13T08:28:46;15.00;99.90
29237;DHT22;16266;50.866;4.398;2023-03-13T08:31:24;15.10;99.90
29237;DHT22;16266;50.866;4.398;2023-03-13T08:33:50;15.20;99.90
29237;DHT22;16266;50.866;4.398;2023-03-13T08:36:21;15.70;99.90
29237;DHT22;16266;50.866;4.398;2023-03-13T08:38:50;16.20;99.90
29237;DHT22;16266;50.866;4.398;2023-03-13T08:41:19;17.00;99.90
29237;DHT22;16266;50.866;4.398;2023-03-13T08:43:46;17.30;99.90
29237;DHT22;16266;50.866;4.398;2023-03-13T08:46:13;17.60;99.90
29237;DHT22;16266;50.866;4.398;2023-03-13T08:48:40;17.80;99.90
29237;DHT22;16266;50.866;4.398;2023-03-13T08:51:11;18.10;99.90
29237;DHT22;16266;50.866;4.398;2023-03-13T08:53:38;19.20;99.90
29237;DHT22;16266;50.866;4.398;2023-03-13T08:56:04;19.80;99.90
29237;DHT22;16266;50.866;4.398;2023-03-13T08:58:31;19.50;99.90
29237;DHT22;16266;50.866;4.398;2023-03-13T09:01:04;19.10;99.90
29237;DHT22;16266;50.866;4.398;2023-03-13T09:03:31;18.70;99.90
29237;DHT22;16266;50.866;4.398;2023-03-13T09:05:58;18.10;99.90
29237;DHT22;16266;50.866;4.398;2023-03-13T09:08:24;17.70;99.90
29237;DHT22;16266;50.866;4.398;2023-03-13T09:10:57;17.50;99.90
29237;DHT22;16266;50.866;4.398;2023-03-13T09:13:24;17.40;99.90
29237;DHT22;16266;50.866;4.398;2023-03-13T09:16:04;17.20;99.90
29237;DHT22;16266;50.866;4.398;2023-03-13T09:18:30;17.20;99.90
29237;DHT22;16266;50.866;4.398;2023-03-13T09:20:56;17.50;99.90
29237;DHT22;16266;50.866;4.398;2023-03-13T09:23:23;17.70;99.90
29237;DHT22;16266;50.866;4.398;2023-03-13T09:25:51;17.90;99.90
29237;DHT22;16266;50.866;4.398;2023-03-13T09:28:17;18.30;99.90
29237;DHT22;16266;50.866;4.398;2023-03-13T09:30:43;19.10;99.90
29237;DHT22;16266;50.866;4.398;2023-03-13T09:33:08;19.40;99.90
29237;DHT22;16266;50.866;4.398;2023-03-13T09:35:34;20.00;99.90
29237;DHT22;16266;50.866;4.398;2023-03-13T09:38:00;19.50;99.90
29237;DHT22;16266;50.866;4.398;2023-03-13T09:40:26;19.20;99.90
29237;DHT22;16266;50.866;4.398;2023-03-13T09:42:58;18.80;99.90
29237;DHT22;16266;50.866;4.398;2023-03-13T09:45:33;18.30;99.90
29237;DHT22;16266;50.866;4.398;2023-03-13T09:54:03;18.60;99.90
29237;DHT22;16266;50.866;4.398;2023-03-13T09:56:38;20.50;99.90
29237;DHT22;16266;50.866;4.398;2023-03-13T09:59:31;21.50;99.90
29237;DHT22;16266;50.866;4.398;2023-03-13T10:02:06;21.00;99.90
29237;DHT22;16266;50.866;4.398;2023-03-13T10:04:47;20.40;99.90
29237;DHT22;16266;50.866;4.398;2023-03-13T10:07:14;20.50;99.90
29237;DHT22;16266;50.866;4.398;2023-03-13T10:09:39;19.90;99.90
29237;DHT22;16266;50.866;4.398;2023-03-13T10:12:18;19.30;99.90
29237;DHT22;16266;50.866;4.398;2023-03-13T10:17:38;19.20;99.90
29237;DHT22;16266;50.866;4.398;2023-03-13T10:20:20;19.50;99.90
29237;DHT22;16266;50.866;4.398;2023-03-13T10:22:58;20.20;99.90
29237;DHT22;16266;50.866;4.398;2023-03-13T10:25:37;20.80;99.90
29237;DHT22;16266;50.866;4.398;2023-03-13T10:28:04;21.40;99.90
29237;DHT22;16266;50.866;4.398;2023-03-13T10:30:32;21.90;99.90
29237;DHT22;16266;50.866;4.398;2023-03-13T10:33:26;21.50;99.90
29237;DHT22;16266;50.866;4.398;2023-03-13T10:36:06;20.60;99.90
29237;DHT22;16266;50.866;4.398;2023-03-13T10:38:53;19.90;99.90
29237;DHT22;16266;50.866;4.398;2023-03-13T10:41:26;19.50;99.90
29237;DHT22;16266;50.866;4.398;2023-03-13T10:43:54;19.40;99.90
29237;DHT22;16266;50.866;4.398;2023-03-13T10:46:27;19.10;99.90
29237;DHT22;16266;50.866;4.398;2023-03-13T10:48:55;18.80;99.90
29237;DHT22;16266;50.866;4.398;2023-03-13T10:51:24;19.00;99.90
29237;DHT22;16266;50.866;4.398;2023-03-13T10:53:49;19.40;99.90
29237;DHT22;16266;50.866;4.398;2023-03-13T10:56:30;19.50;99.90
29237;DHT22;16266;50.866;4.398;2023-03-13T10:58:56;20.30;99.90
29237;DHT22;16266;50.866;4.398;2023-03-13T11:01:24;20.70;99.90
29237;DHT22;16266;50.866;4.398;2023-03-13T11:03:52;21.20;99.90
29237;DHT22;16266;50.866;4.398;2023-03-13T11:06:30;21.90;99.90
29237;DHT22;16266;50.866;4.398;2023-03-13T11:11:27;22.60;99.90
29237;DHT22;16266;50.866;4.398;2023-03-13T11:14:07;22.40;99.90
29237;DHT22;16266;50.866;4.398;2023-03-13T11:16:38;21.60;99.90
29237;DHT22;16266;50.866;4.398;2023-03-13T11:24:45;22.70;99.90
29237;DHT22;16266;50.866;4.398;2023-03-13T11:33:01;19.60;99.90
29237;DHT22;16266;50.866;4.398;2023-03-13T11:35:34;19.00;99.90
29237;DHT22;16266;50.866;4.398;2023-03-13T11:38:51;18.90;99.90
29237;DHT22;16266;50.866;4.398;2023-03-13T11:44:03;21.00;99.90
29237;DHT22;16266;50.866;4.398;2023-03-13T11:52:16;19.30;99.90
29237;DHT22;16266;50.866;4.398;2023-03-13T12:00:57;19.20;99.90
29237;DHT22;16266;50.866;4.398;2023-03-13T12:03:50;19.40;99.90
29237;DHT22;16266;50.866;4.398;2023-03-13T12:06:31;20.70;99.90
29237;DHT22;16266;50.866;4.398;2023-03-13T12:09:03;21.60;99.90
29237;DHT22;16266;50.866;4.398;2023-03-13T12:11:35;21.70;99.90
29237;DHT22;16266;50.866;4.398;2023-03-13T12:14:55;21.80;99.90
29237;DHT22;16266;50.866;4.398;2023-03-13T12:17:24;21.40;99.90
29237;DHT22;16266;50.866;4.398;2023-03-13T12:25:42;21.70;99.90
29237;DHT22;16266;50.866;4.398;2023-03-13T12:28:36;21.10;99.90
29237;DHT22;16266;50.866;4.398;2023-03-13T12:31:24;21.90;99.90
29237;DHT22;16266;50.866;4.398;2023-03-13T12:34:11;21.50;99.90
29237;DHT22;16266;50.866;4.398;2023-03-13T12:39:32;21.60;99.90
29237;DHT22;16266;50.866;4.398;2023-03-13T12:44:50;21.50;99.90
29237;DHT22;16266;50.866;4.398;2023-03-13T12:50:15;21.20;99.90
29237;DHT22;16266;50.866;4.398;2023-03-13T12:52:53;21.00;99.90
29237;DHT22;16266;50.866;4.398;2023-03-13T12:55:45;20.30;99.90
29237;DHT22;16266;50.866;4.398;2023-03-13T12:58:37;19.90;99.90
29237;DHT22;16266;50.866;4.398;2023-03-13T13:01:05;20.40;99.90
29237;DHT22;16266;50.866;4.398;2023-03-13T13:03:39;20.50;99.90
29237;DHT22;16266;50.866;4.398;2023-03-13T13:06:09;19.80;99.90
29237;DHT22;16266;50.866;4.398;2023-03-13T13:08:41;19.30;99.90
29237;DHT22;16266;50.866;4.398;2023-03-13T13:13:59;19.80;99.90
29237;DHT22;16266;50.866;4.398;2023-03-13T13:16:25;19.50;99.90
29237;DHT22;16266;50.866;4.398;2023-03-13T13:18:52;19.50;99.90
29237;DHT22;16266;50.866;4.398;2023-03-13T13:21:21;19.60;99.90
29237;DHT22;16266;50.866;4.398;2023-03-13T13:23:48;19.40;99.90
29237;DHT22;16266;50.866;4.398;2023-03-13T13:28:59;19.40;99.90
29237;DHT22;16266;50.866;4.398;2023-03-13T13:39:45;19.70;99.90
29237;DHT22;16266;50.866;4.398;2023-03-13T13:47:25;19.30;99.90
29237;DHT22;16266;50.866;4.398;2023-03-13T13:49:54;19.10;99.90
29237;DHT22;16266;50.866;4.398;2023-03-13T13:52:36;19.00;99.90
29237;DHT22;16266;50.866;4.398;2023-03-13T13:55:48;19.10;99.90
29237;DHT22;16266;50.866;4.398;2023-03-13T13:57:57;19.00;99.90
29237;DHT22;16266;50.866;4.398;2023-03-13T14:00:26;19.10;99.90
29237;DHT22;16266;50.866;4.398;2023-03-13T14:02:55;18.90;99.90
29237;DHT22;16266;50.866;4.398;2023-03-13T14:05:26;18.70;99.90
29237;DHT22;16266;50.866;4.398;2023-03-13T14:10:40;18.30;99.90
29237;DHT22;16266;50.866;4.398;2023-03-13T14:13:19;18.20;99.90
29237;DHT22;16266;50.866;4.398;2023-03-13T14:15:47;18.10;99.90
29237;DHT22;16266;50.866;4.398;2023-03-13T14:18:23;18.00;99.90
29237;DHT22;16266;50.866;4.398;2023-03-13T14:20:53;18.10;99.90
29237;DHT22;16266;50.866;4.398;2023-03-13T14:26:24;18.20;99.90
29237;DHT22;16266;50.866;4.398;2023-03-13T14:28:55;18.00;99.90
29237;DHT22;16266;50.866;4.398;2023-03-13T14:31:38;18.10;99.90
29237;DHT22;16266;50.866;4.398;2023-03-13T14:34:07;18.20;99.90
29237;DHT22;16266;50.866;4.398;2023-03-13T14:36:50;18.20;99.90
29237;DHT22;16266;50.866;4.398;2023-03-13T14:44:30;18.00;99.90
29237;DHT22;16266;50.866;4.398;2023-03-13T14:46:59;17.80;99.90
29237;DHT22;16266;50.866;4.398;2023-03-13T14:49:29;17.80;99.90
29237;DHT22;16266;50.866;4.398;2023-03-13T14:52:20;17.70;99.90
29237;DHT22;16266;50.866;4.398;2023-03-13T14:55:03;17.60;99.90
29237;DHT22;16266;50.866;4.398;2023-03-13T14:57:30;17.50;99.90
29237;DHT22;16266;50.866;4.398;2023-03-13T15:05:42;17.50;99.90
29237;DHT22;16266;50.866;4.398;2023-03-13T15:08:35;17.50;99.90
29237;DHT22;16266;50.866;4.398;2023-03-13T15:11:02;17.60;99.90
29237;DHT22;16266;50.866;4.398;2023-03-13T15:13:41;17.40;99.90
29237;DHT22;16266;50.866;4.398;2023-03-13T15:16:26;17.40;99.90
29237;DHT22;16266;50.866;4.398;2023-03-13T15:18:53;17.40;99.90
29237;DHT22;16266;50.866;4.398;2023-03-13T15:21:32;17.40;99.90
29237;DHT22;16266;50.866;4.398;2023-03-13T15:24:00;17.30;99.90
29237;DHT22;16266;50.866;4.398;2023-03-13T15:26:27;17.30;99.90
29237;DHT22;16266;50.866;4.398;2023-03-13T15:28:53;17.30;99.90
29237;DHT22;16266;50.866;4.398;2023-03-13T15:31:24;17.30;99.90
29237;DHT22;16266;50.866;4.398;2023-03-13T15:33:57;17.20;99.90
29237;DHT22;16266;50.866;4.398;2023-03-13T15:36:25;17.10;99.90
29237;DHT22;16266;50.866;4.398;2023-03-13T15:38:50;17.00;99.90
29237;DHT22;16266;50.866;4.398;2023-03-13T15:41:17;17.00;99.90
29237;DHT22;16266;50.866;4.398;2023-03-13T15:43:43;17.00;99.90
29237;DHT22;16266;50.866;4.398;2023-03-13T15:46:18;16.90;99.90
29237;DHT22;16266;50.866;4.398;2023-03-13T15:48:45;16.80;99.90
29237;DHT22;16266;50.866;4.398;2023-03-13T15:51:13;16.80;99.90
29237;DHT22;16266;50.866;4.398;2023-03-13T15:53:40;16.80;99.90
29237;DHT22;16266;50.866;4.398;2023-03-13T15:56:15;16.80;99.90
29237;DHT22;16266;50.866;4.398;2023-03-13T15:58:41;16.80;99.90
29237;DHT22;16266;50.866;4.398;2023-03-13T16:01:09;16.80;99.90
29237;DHT22;16266;50.866;4.398;2023-03-13T16:03:35;16.60;99.90
29237;DHT22;16266;50.866;4.398;2023-03-13T16:06:01;16.60;99.90
29237;DHT22;16266;50.866;4.398;2023-03-13T16:08:28;16.50;99.90
29237;DHT22;16266;50.866;4.398;2023-03-13T16:10:54;16.60;99.90
29237;DHT22;16266;50.866;4.398;2023-03-13T16:13:19;16.60;99.90
29237;DHT22;16266;50.866;4.398;2023-03-13T16:15:45;16.60;99.90
29237;DHT22;16266;50.866;4.398;2023-03-13T16:18:22;16.60;99.90
29237;DHT22;16266;50.866;4.398;2023-03-13T16:20:49;16.60;99.90
29237;DHT22;16266;50.866;4.398;2023-03-13T16:23:15;16.60;99.90
29237;DHT22;16266;50.866;4.398;2023-03-13T16:25:45;16.60;99.90
29237;DHT22;16266;50.866;4.398;2023-03-13T16:28:11;16.60;99.90
29237;DHT22;16266;50.866;4.398;2023-03-13T16:30:38;16.70;99.90
29237;DHT22;16266;50.866;4.398;2023-03-13T16:33:13;16.70;99.90
29237;DHT22;16266;50.866;4.398;2023-03-13T16:35:39;16.70;99.90
29237;DHT22;16266;50.866;4.398;2023-03-13T16:38:04;16.60;99.90
29237;DHT22;16266;50.866;4.398;2023-03-13T16:40:33;16.50;99.90
29237;DHT22;16266;50.866;4.398;2023-03-13T16:42:59;16.40;99.90
29237;DHT22;16266;50.866;4.398;2023-03-13T16:45:25;16.50;99.90
29237;DHT22;16266;50.866;4.398;2023-03-13T16:47:51;16.40;99.90
29237;DHT22;16266;50.866;4.398;2023-03-13T16:50:27;16.40;99.90
29237;DHT22;16266;50.866;4.398;2023-03-13T16:52:53;16.40;99.90
29237;DHT22;16266;50.866;4.398;2023-03-13T16:55:20;16.40;99.90
29237;DHT22;16266;50.866;4.398;2023-03-13T16:57:49;16.30;99.90
29237;DHT22;16266;50.866;4.398;2023-03-13T17:00:18;16.30;99.90
29237;DHT22;16266;50.866;4.398;2023-03-13T17:02:44;16.20;99.90
29237;DHT22;16266;50.866;4.398;2023-03-13T17:05:10;16.20;99.90
29237;DHT22;16266;50.866;4.398;2023-03-13T17:07:40;16.20;99.90
29237;DHT22;16266;50.866;4.398;2023-03-13T17:10:22;16.10;99.90
29237;DHT22;16266;50.866;4.398;2023-03-13T17:12:48;16.10;99.90
29237;DHT22;16266;50.866;4.398;2023-03-13T17:15:14;16.00;99.90
29237;DHT22;16266;50.866;4.398;2023-03-13T17:17:40;16.00;99.90
29237;DHT22;16266;50.866;4.398;2023-03-13T17:20:08;16.00;99.90
29237;DHT22;16266;50.866;4.398;2023-03-13T17:22:37;15.90;99.90